sensor_id;sensor_type;location;lat;lon;timestamp;temperature;humidity
25953;DHT22;13750;50.804;8.764;2023-06-10T00:00:40;18.50;69.60
25953;DHT22;13750;50.804;8.764;2023-06-10T00:03:09;18.50;69.70
25953;DHT22;13750;50.804;8.764;2023-06-10T00:05:35;18.50;69.70
25953;DHT22;13750;50.804;8.764;2023-06-10T00:08:01;18.40;69.80
25953;DHT22;13750;50.804;8.764;2023-06-10T00:10:36;18.40;69.80
25953;DHT22;13750;50.804;8.764;2023-06-10T00:13:04;18.50;68.60
25953;DHT22;13750;50.804;8.764;2023-06-10T00:15:30;18.50;68.70
25953;DHT22;13750;50.804;8.764;2023-06-10T00:17:56;18.50;68.80
25953;DHT22;13750;50.804;8.764;2023-06-10T00:20:22;18.60;68.80
25953;DHT22;13750;50.804;8.764;2023-06-10T00:22:49;18.60;68.60
25953;DHT22;13750;50.804;8.764;2023-06-10T00:25:15;18.60;68.20
25953;DHT22;13750;50.804;8.764;2023-06-10T00:27:40;18.60;68.10
25953;DHT22;13750;50.804;8.764;2023-06-10T00:30:06;18.60;68.10
25953;DHT22;13750;50.804;8.764;2023-06-10T00:32:33;18.60;68.10
25953;DHT22;13750;50.804;8.764;2023-06-10T00:34:58;18.60;68.20
25953;DHT22;13750;50.804;8.764;2023-06-10T00:37:24;18.60;68.10
25953;DHT22;13750;50.804;8.764;2023-06-10T00:39:50;18.60;68.10
25953;DHT22;13750;50.804;8.764;2023-06-10T00:42:15;18.60;68.10
25953;DHT22;13750;50.804;8.764;2023-06-10T00:44:41;18.60;67.40
25953;DHT22;13750;50.804;8.764;2023-06-10T00:47:07;18.60;67.40
25953;DHT22;13750;50.804;8.764;2023-06-10T00:49:33;18.60;67.60
25953;DHT22;13750;50.804;8.764;2023-06-10T00:51:59;18.60;67.70
25953;DHT22;13750;50.804;8.764;2023-06-10T00:54:25;18.60;67.80
25953;DHT22;13750;50.804;8.764;2023-06-10T00:56:51;18.60;67.70
25953;DHT22;13750;50.804;8.764;2023-06-10T00:59:17;18.60;67.80
25953;DHT22;13750;50.804;8.764;2023-06-10T01:01:44;18.60;67.90
25953;DHT22;13750;50.804;8.764;2023-06-10T01:04:12;18.60;67.40
25953;DHT22;13750;50.804;8.764;2023-06-10T01:06:43;18.60;67.10
25953;DHT22;13750;50.804;8.764;2023-06-10T01:09:23;18.60;66.90
25953;DHT22;13750;50.804;8.764;2023-06-10T01:11:58;18.70;67.10
25953;DHT22;13750;50.804;8.764;2023-06-10T01:14:26;18.60;67.30
25953;DHT22;13750;50.804;8.764;2023-06-10T01:16:52;18.60;67.20
25953;DHT22;13750;50.804;8.764;2023-06-10T01:19:18;18.60;67.40
25953;DHT22;13750;50.804;8.764;2023-06-10T01:21:44;18.60;67.60
25953;DHT22;13750;50.804;8.764;2023-06-10T01:24:14;18.50;67.80
25953;DHT22;13750;50.804;8.764;2023-06-10T01:26:44;18.50;67.70
25953;DHT22;13750;50.804;8.764;2023-06-10T01:29:34;18.50;67.90
25953;DHT22;13750;50.804;8.764;2023-06-10T01:32:18;18.50;67.80
25953;DHT22;13750;50.804;8.764;2023-06-10T01:34:46;18.50;67.40
25953;DHT22;13750;50.804;8.764;2023-06-10T01:37:13;18.60;66.90
25953;DHT22;13750;50.804;8.764;2023-06-10T01:39:41;18.50;67.20
25953;DHT22;13750;50.804;8.764;2023-06-10T01:42:08;18.40;67.60
25953;DHT22;13750;50.804;8.764;2023-06-10T01:44:35;18.40;67.50
25953;DHT22;13750;50.804;8.764;2023-06-10T01:47:01;18.40;67.60
25953;DHT22;13750;50.804;8.764;2023-06-10T01:49:26;18.40;67.20
25953;DHT22;13750;50.804;8.764;2023-06-10T01:51:53;18.50;67.00
25953;DHT22;13750;50.804;8.764;2023-06-10T01:54:19;18.40;67.20
25953;DHT22;13750;50.804;8.764;2023-06-10T01:56:45;18.40;67.00
25953;DHT22;13750;50.804;8.764;2023-06-10T01:59:10;18.40;67.00
25953;DHT22;13750;50.804;8.764;2023-06-10T02:01:36;18.50;66.60
25953;DHT22;13750;50.804;8.764;2023-06-10T02:04:01;18.50;66.30
25953;DHT22;13750;50.804;8.764;2023-06-10T02:06:27;18.50;66.20
25953;DHT22;13750;50.804;8.764;2023-06-10T02:08:53;18.50;66.40
25953;DHT22;13750;50.804;8.764;2023-06-10T02:11:18;18.40;66.20
25953;DHT22;13750;50.804;8.764;2023-06-10T02:13:44;18.50;66.10
25953;DHT22;13750;50.804;8.764;2023-06-10T02:16:09;18.40;66.00
25953;DHT22;13750;50.804;8.764;2023-06-10T02:18:38;18.50;65.90
25953;DHT22;13750;50.804;8.764;2023-06-10T02:21:06;18.40;65.90
25953;DHT22;13750;50.804;8.764;2023-06-10T02:23:32;18.40;65.90
25953;DHT22;13750;50.804;8.764;2023-06-10T02:25:57;18.30;65.90
25953;DHT22;13750;50.804;8.764;2023-06-10T02:28:23;18.30;65.80
25953;DHT22;13750;50.804;8.764;2023-06-10T02:30:49;18.20;66.10
25953;DHT22;13750;50.804;8.764;2023-06-10T02:33:15;18.20;66.10
25953;DHT22;13750;50.804;8.764;2023-06-10T02:35:40;18.20;66.10
25953;DHT22;13750;50.804;8.764;2023-06-10T02:38:06;18.20;66.40
25953;DHT22;13750;50.804;8.764;2023-06-10T02:40:32;18.20;66.30
25953;DHT22;13750;50.804;8.764;2023-06-10T02:42:58;18.10;66.50
25953;DHT22;13750;50.804;8.764;2023-06-10T02:45:24;18.10;66.40
25953;DHT22;13750;50.804;8.764;2023-06-10T02:47:50;18.10;66.30
25953;DHT22;13750;50.804;8.764;2023-06-10T02:50:15;18.10;66.40
25953;DHT22;13750;50.804;8.764;2023-06-10T02:52:41;18.10;66.20
25953;DHT22;13750;50.804;8.764;2023-06-10T02:55:07;18.10;66.10
25953;DHT22;13750;50.804;8.764;2023-06-10T02:57:32;18.10;66.40
25953;DHT22;13750;50.804;8.764;2023-06-10T02:59:58;18.10;66.40
25953;DHT22;13750;50.804;8.764;2023-06-10T03:02:24;18.10;66.40
25953;DHT22;13750;50.804;8.764;2023-06-10T03:04:57;18.00;66.60
25953;DHT22;13750;50.804;8.764;2023-06-10T03:07:23;18.00;66.80
25953;DHT22;13750;50.804;8.764;2023-06-10T03:09:49;18.00;66.60
25953;DHT22;13750;50.804;8.764;2023-06-10T03:12:15;18.00;66.80
25953;DHT22;13750;50.804;8.764;2023-06-10T03:14:41;17.90;66.90
25953;DHT22;13750;50.804;8.764;2023-06-10T03:17:07;17.90;66.70
25953;DHT22;13750;50.804;8.764;2023-06-10T03:19:34;17.90;66.70
25953;DHT22;13750;50.804;8.764;2023-06-10T03:22:10;17.90;66.40
25953;DHT22;13750;50.804;8.764;2023-06-10T03:24:36;17.90;66.50
25953;DHT22;13750;50.804;8.764;2023-06-10T03:27:08;17.80;66.80
25953;DHT22;13750;50.804;8.764;2023-06-10T03:29:33;17.80;66.80
25953;DHT22;13750;50.804;8.764;2023-06-10T03:31:59;17.80;67.00
25953;DHT22;13750;50.804;8.764;2023-06-10T03:34:25;17.80;66.70
25953;DHT22;13750;50.804;8.764;2023-06-10T03:36:50;17.80;66.70
25953;DHT22;13750;50.804;8.764;2023-06-10T03:39:16;17.80;66.80
25953;DHT22;13750;50.804;8.764;2023-06-10T03:41:42;17.70;66.70
25953;DHT22;13750;50.804;8.764;2023-06-10T03:44:07;17.70;66.70
25953;DHT22;13750;50.804;8.764;2023-06-10T03:46:33;17.80;66.40
25953;DHT22;13750;50.804;8.764;2023-06-10T03:48:58;17.70;66.70
25953;DHT22;13750;50.804;8.764;2023-06-10T03:51:26;17.70;66.90
25953;DHT22;13750;50.804;8.764;2023-06-10T03:53:52;17.70;67.00
25953;DHT22;13750;50.804;8.764;2023-06-10T03:56:17;17.70;67.20
25953;DHT22;13750;50.804;8.764;2023-06-10T03:58:43;17.70;67.20
25953;DHT22;13750;50.804;8.764;2023-06-10T04:01:09;17.70;67.40
25953;DHT22;13750;50.804;8.764;2023-06-10T04:03:36;17.60;67.70
25953;DHT22;13750;50.804;8.764;2023-06-10T04:06:01;17.60;68.20
25953;DHT22;13750;50.804;8.764;2023-06-10T04:08:28;17.50;68.80
25953;DHT22;13750;50.804;8.764;2023-06-10T04:10:53;17.50;69.10
25953;DHT22;13750;50.804;8.764;2023-06-10T04:13:19;17.60;67.70
25953;DHT22;13750;50.804;8.764;2023-06-10T04:15:45;17.60;67.20
25953;DHT22;13750;50.804;8.764;2023-06-10T04:18:10;17.70;66.50
25953;DHT22;13750;50.804;8.764;2023-06-10T04:20:36;17.80;66.00
25953;DHT22;13750;50.804;8.764;2023-06-10T04:23:01;17.80;66.00
25953;DHT22;13750;50.804;8.764;2023-06-10T04:25:27;17.90;65.60
25953;DHT22;13750;50.804;8.764;2023-06-10T04:27:54;17.90;65.80
25953;DHT22;13750;50.804;8.764;2023-06-10T04:30:19;17.90;65.80
25953;DHT22;13750;50.804;8.764;2023-06-10T04:32:45;17.90;65.60
25953;DHT22;13750;50.804;8.764;2023-06-10T04:35:12;17.90;65.80
25953;DHT22;13750;50.804;8.764;2023-06-10T04:37:39;17.90;65.70
25953;DHT22;13750;50.804;8.764;2023-06-10T04:40:05;17.90;65.20
25953;DHT22;13750;50.804;8.764;2023-06-10T04:42:31;18.00;65.40
25953;DHT22;13750;50.804;8.764;2023-06-10T04:44:57;18.00;65.30
25953;DHT22;13750;50.804;8.764;2023-06-10T04:47:23;17.90;65.70
25953;DHT22;13750;50.804;8.764;2023-06-10T04:49:48;17.90;65.50
25953;DHT22;13750;50.804;8.764;2023-06-10T04:52:14;18.00;65.30
25953;DHT22;13750;50.804;8.764;2023-06-10T04:54:40;18.10;65.10
25953;DHT22;13750;50.804;8.764;2023-06-10T04:57:06;18.10;65.00
25953;DHT22;13750;50.804;8.764;2023-06-10T04:59:33;18.10;64.80
25953;DHT22;13750;50.804;8.764;2023-06-10T05:01:58;18.10;64.90
25953;DHT22;13750;50.804;8.764;2023-06-10T05:04:25;18.10;65.10
25953;DHT22;13750;50.804;8.764;2023-06-10T05:06:50;18.10;65.10
25953;DHT22;13750;50.804;8.764;2023-06-10T05:09:16;18.20;65.30
25953;DHT22;13750;50.804;8.764;2023-06-10T05:11:42;18.10;65.40
25953;DHT22;13750;50.804;8.764;2023-06-10T05:14:07;18.10;65.60
25953;DHT22;13750;50.804;8.764;2023-06-10T05:16:33;18.10;65.60
25953;DHT22;13750;50.804;8.764;2023-06-10T05:18:58;18.10;65.60
25953;DHT22;13750;50.804;8.764;2023-06-10T05:21:24;18.10;65.80
25953;DHT22;13750;50.804;8.764;2023-06-10T05:23:49;18.10;65.90
25953;DHT22;13750;50.804;8.764;2023-06-10T05:26:15;18.10;65.90
25953;DHT22;13750;50.804;8.764;2023-06-10T05:28:41;18.10;66.10
25953;DHT22;13750;50.804;8.764;2023-06-10T05:31:07;18.10;65.70
25953;DHT22;13750;50.804;8.764;2023-06-10T05:33:32;18.10;65.90
25953;DHT22;13750;50.804;8.764;2023-06-10T05:35:58;18.10;65.90
25953;DHT22;13750;50.804;8.764;2023-06-10T05:38:23;18.10;65.90
25953;DHT22;13750;50.804;8.764;2023-06-10T05:40:49;18.20;65.80
25953;DHT22;13750;50.804;8.764;2023-06-10T05:43:14;18.20;65.60
25953;DHT22;13750;50.804;8.764;2023-06-10T05:45:42;18.20;65.70
25953;DHT22;13750;50.804;8.764;2023-06-10T05:48:07;18.20;65.60
25953;DHT22;13750;50.804;8.764;2023-06-10T05:50:34;18.20;65.80
25953;DHT22;13750;50.804;8.764;2023-06-10T05:53:03;18.20;66.00
25953;DHT22;13750;50.804;8.764;2023-06-10T05:55:29;18.30;65.70
25953;DHT22;13750;50.804;8.764;2023-06-10T05:58:01;18.30;65.70
25953;DHT22;13750;50.804;8.764;2023-06-10T06:00:26;18.30;65.60
25953;DHT22;13750;50.804;8.764;2023-06-10T06:02:52;18.40;65.40
25953;DHT22;13750;50.804;8.764;2023-06-10T06:05:19;18.40;65.30
25953;DHT22;13750;50.804;8.764;2023-06-10T06:07:45;18.50;64.90
25953;DHT22;13750;50.804;8.764;2023-06-10T06:10:10;18.60;64.60
25953;DHT22;13750;50.804;8.764;2023-06-10T06:12:36;18.60;64.60
25953;DHT22;13750;50.804;8.764;2023-06-10T06:15:01;18.60;64.70
25953;DHT22;13750;50.804;8.764;2023-06-10T06:17:27;18.70;64.60
25953;DHT22;13750;50.804;8.764;2023-06-10T06:19:53;18.70;64.40
25953;DHT22;13750;50.804;8.764;2023-06-10T06:22:18;18.80;64.40
25953;DHT22;13750;50.804;8.764;2023-06-10T06:24:46;18.90;64.30
25953;DHT22;13750;50.804;8.764;2023-06-10T06:27:12;18.90;64.20
25953;DHT22;13750;50.804;8.764;2023-06-10T06:29:38;19.00;63.80
25953;DHT22;13750;50.804;8.764;2023-06-10T06:32:03;19.00;63.90
25953;DHT22;13750;50.804;8.764;2023-06-10T06:34:29;19.00;63.90
25953;DHT22;13750;50.804;8.764;2023-06-10T06:36:55;19.10;63.60
25953;DHT22;13750;50.804;8.764;2023-06-10T06:39:20;19.10;63.60
25953;DHT22;13750;50.804;8.764;2023-06-10T06:41:46;19.20;63.60
25953;DHT22;13750;50.804;8.764;2023-06-10T06:44:11;19.20;63.50
25953;DHT22;13750;50.804;8.764;2023-06-10T06:46:37;19.20;63.80
25953;DHT22;13750;50.804;8.764;2023-06-10T06:49:02;19.30;63.60
25953;DHT22;13750;50.804;8.764;2023-06-10T06:51:28;19.30;63.50
25953;DHT22;13750;50.804;8.764;2023-06-10T06:53:53;19.40;63.30
25953;DHT22;13750;50.804;8.764;2023-06-10T06:56:23;19.40;63.40
25953;DHT22;13750;50.804;8.764;2023-06-10T06:58:48;19.50;63.70
25953;DHT22;13750;50.804;8.764;2023-06-10T07:01:14;19.60;63.50
25953;DHT22;13750;50.804;8.764;2023-06-10T07:03:39;19.60;63.60
25953;DHT22;13750;50.804;8.764;2023-06-10T07:06:05;19.60;63.60
25953;DHT22;13750;50.804;8.764;2023-06-10T07:08:30;19.70;63.40
25953;DHT22;13750;50.804;8.764;2023-06-10T07:10:56;19.70;63.60
25953;DHT22;13750;50.804;8.764;2023-06-10T07:13:22;19.90;63.00
25953;DHT22;13750;50.804;8.764;2023-06-10T07:15:47;20.00;63.20
25953;DHT22;13750;50.804;8.764;2023-06-10T07:18:15;20.00;63.30
25953;DHT22;13750;50.804;8.764;2023-06-10T07:20:40;20.00;63.40
25953;DHT22;13750;50.804;8.764;2023-06-10T07:23:06;20.10;63.40
25953;DHT22;13750;50.804;8.764;2023-06-10T07:25:32;20.10;62.80
25953;DHT22;13750;50.804;8.764;2023-06-10T07:27:57;20.20;62.70
25953;DHT22;13750;50.804;8.764;2023-06-10T07:30:23;20.30;63.20
25953;DHT22;13750;50.804;8.764;2023-06-10T07:32:49;20.30;63.10
25953;DHT22;13750;50.804;8.764;2023-06-10T07:35:14;20.30;62.80
25953;DHT22;13750;50.804;8.764;2023-06-10T07:37:40;20.40;62.60
25953;DHT22;13750;50.804;8.764;2023-06-10T07:40:06;20.40;62.60
25953;DHT22;13750;50.804;8.764;2023-06-10T07:42:34;20.40;62.60
25953;DHT22;13750;50.804;8.764;2023-06-10T07:45:00;20.50;62.50
25953;DHT22;13750;50.804;8.764;2023-06-10T07:47:25;20.60;61.80
25953;DHT22;13750;50.804;8.764;2023-06-10T07:49:51;20.60;61.80
25953;DHT22;13750;50.804;8.764;2023-06-10T07:52:17;20.60;61.00
25953;DHT22;13750;50.804;8.764;2023-06-10T07:54:42;20.60;61.30
25953;DHT22;13750;50.804;8.764;2023-06-10T07:57:08;20.80;61.20
25953;DHT22;13750;50.804;8.764;2023-06-10T07:59:34;20.90;60.90
25953;DHT22;13750;50.804;8.764;2023-06-10T08:01:59;20.80;61.00
25953;DHT22;13750;50.804;8.764;2023-06-10T08:04:25;20.90;61.10
25953;DHT22;13750;50.804;8.764;2023-06-10T08:06:50;21.00;60.30
25953;DHT22;13750;50.804;8.764;2023-06-10T08:09:16;21.10;59.30
25953;DHT22;13750;50.804;8.764;2023-06-10T08:11:43;21.20;59.40
25953;DHT22;13750;50.804;8.764;2023-06-10T08:14:09;21.20;59.00
25953;DHT22;13750;50.804;8.764;2023-06-10T08:16:35;21.20;58.80
25953;DHT22;13750;50.804;8.764;2023-06-10T08:19:00;21.30;58.60
25953;DHT22;13750;50.804;8.764;2023-06-10T08:21:26;21.30;58.10
25953;DHT22;13750;50.804;8.764;2023-06-10T08:23:54;21.40;58.40
25953;DHT22;13750;50.804;8.764;2023-06-10T08:26:19;21.40;58.30
25953;DHT22;13750;50.804;8.764;2023-06-10T08:28:45;21.60;58.10
25953;DHT22;13750;50.804;8.764;2023-06-10T08:31:11;21.60;57.90
25953;DHT22;13750;50.804;8.764;2023-06-10T08:33:36;21.70;57.40
25953;DHT22;13750;50.804;8.764;2023-06-10T08:36:02;21.70;57.20
25953;DHT22;13750;50.804;8.764;2023-06-10T08:38:27;21.80;57.70
25953;DHT22;13750;50.804;8.764;2023-06-10T08:40:56;21.80;57.90
25953;DHT22;13750;50.804;8.764;2023-06-10T08:43:32;21.90;57.70
25953;DHT22;13750;50.804;8.764;2023-06-10T08:46:00;22.00;57.80
25953;DHT22;13750;50.804;8.764;2023-06-10T08:48:29;22.00;57.60
25953;DHT22;13750;50.804;8.764;2023-06-10T08:50:59;22.10;57.60
25953;DHT22;13750;50.804;8.764;2023-06-10T08:53:25;22.10;56.50
25953;DHT22;13750;50.804;8.764;2023-06-10T08:55:51;22.10;56.60
25953;DHT22;13750;50.804;8.764;2023-06-10T08:58:18;22.20;56.40
25953;DHT22;13750;50.804;8.764;2023-06-10T09:00:44;22.20;56.30
25953;DHT22;13750;50.804;8.764;2023-06-10T09:03:10;22.20;56.90
25953;DHT22;13750;50.804;8.764;2023-06-10T09:05:37;22.20;57.10
25953;DHT22;13750;50.804;8.764;2023-06-10T09:08:04;22.30;55.70
25953;DHT22;13750;50.804;8.764;2023-06-10T09:10:31;22.40;55.70
25953;DHT22;13750;50.804;8.764;2023-06-10T09:12:57;22.60;56.00
25953;DHT22;13750;50.804;8.764;2023-06-10T09:15:23;22.60;55.80
25953;DHT22;13750;50.804;8.764;2023-06-10T09:17:48;22.60;56.60
25953;DHT22;13750;50.804;8.764;2023-06-10T09:20:14;22.60;57.20
25953;DHT22;13750;50.804;8.764;2023-06-10T09:22:42;22.60;57.60
25953;DHT22;13750;50.804;8.764;2023-06-10T09:25:10;22.60;58.00
25953;DHT22;13750;50.804;8.764;2023-06-10T09:27:50;22.60;58.00
25953;DHT22;13750;50.804;8.764;2023-06-10T09:30:27;22.60;58.30
25953;DHT22;13750;50.804;8.764;2023-06-10T09:32:54;22.60;58.00
25953;DHT22;13750;50.804;8.764;2023-06-10T09:35:25;22.60;58.40
25953;DHT22;13750;50.804;8.764;2023-06-10T09:37:56;22.60;58.80
25953;DHT22;13750;50.804;8.764;2023-06-10T09:40:22;22.60;58.40
25953;DHT22;13750;50.804;8.764;2023-06-10T09:42:56;22.70;58.80
25953;DHT22;13750;50.804;8.764;2023-06-10T09:45:22;22.70;58.10
25953;DHT22;13750;50.804;8.764;2023-06-10T09:47:52;22.80;58.40
25953;DHT22;13750;50.804;8.764;2023-06-10T09:50:18;22.90;57.90
25953;DHT22;13750;50.804;8.764;2023-06-10T09:52:45;23.00;57.30
25953;DHT22;13750;50.804;8.764;2023-06-10T09:55:11;23.00;57.50
25953;DHT22;13750;50.804;8.764;2023-06-10T09:57:37;23.00;57.60
25953;DHT22;13750;50.804;8.764;2023-06-10T10:00:10;23.00;57.50
25953;DHT22;13750;50.804;8.764;2023-06-10T10:02:54;23.10;56.80
25953;DHT22;13750;50.804;8.764;2023-06-10T10:05:21;23.10;56.80
25953;DHT22;13750;50.804;8.764;2023-06-10T10:07:48;23.20;56.00
25953;DHT22;13750;50.804;8.764;2023-06-10T10:10:14;23.30;54.20
25953;DHT22;13750;50.804;8.764;2023-06-10T10:12:41;23.40;54.80
25953;DHT22;13750;50.804;8.764;2023-06-10T10:15:11;23.50;54.80
25953;DHT22;13750;50.804;8.764;2023-06-10T10:17:40;23.50;55.40
25953;DHT22;13750;50.804;8.764;2023-06-10T10:20:08;23.60;55.00
25953;DHT22;13750;50.804;8.764;2023-06-10T10:22:41;23.60;55.30
25953;DHT22;13750;50.804;8.764;2023-06-10T10:25:12;23.60;55.10
25953;DHT22;13750;50.804;8.764;2023-06-10T10:27:52;23.70;54.50
25953;DHT22;13750;50.804;8.764;2023-06-10T10:30:21;23.70;54.50
25953;DHT22;13750;50.804;8.764;2023-06-10T10:35:25;23.80;54.30
25953;DHT22;13750;50.804;8.764;2023-06-10T10:37:54;23.80;55.00
25953;DHT22;13750;50.804;8.764;2023-06-10T10:40:25;23.90;54.40
25953;DHT22;13750;50.804;8.764;2023-06-10T10:42:52;23.90;54.20
25953;DHT22;13750;50.804;8.764;2023-06-10T10:45:18;23.90;54.10
25953;DHT22;13750;50.804;8.764;2023-06-10T10:47:45;24.00;54.30
25953;DHT22;13750;50.804;8.764;2023-06-10T10:50:19;24.00;53.70
25953;DHT22;13750;50.804;8.764;2023-06-10T10:53:10;24.00;53.70
25953;DHT22;13750;50.804;8.764;2023-06-10T10:55:36;24.00;54.20
25953;DHT22;13750;50.804;8.764;2023-06-10T10:58:06;24.00;54.20
25953;DHT22;13750;50.804;8.764;2023-06-10T11:00:34;24.00;54.50
25953;DHT22;13750;50.804;8.764;2023-06-10T11:05:44;24.10;53.10
25953;DHT22;13750;50.804;8.764;2023-06-10T11:08:13;24.10;52.20
25953;DHT22;13750;50.804;8.764;2023-06-10T11:10:41;24.10;52.50
25953;DHT22;13750;50.804;8.764;2023-06-10T11:13:09;24.10;52.90
25953;DHT22;13750;50.804;8.764;2023-06-10T11:15:48;24.10;53.10
25953;DHT22;13750;50.804;8.764;2023-06-10T11:18:25;24.20;52.10
25953;DHT22;13750;50.804;8.764;2023-06-10T11:20:54;24.30;51.30
25953;DHT22;13750;50.804;8.764;2023-06-10T11:23:32;24.30;51.60
25953;DHT22;13750;50.804;8.764;2023-06-10T11:29:01;24.60;50.70
25953;DHT22;13750;50.804;8.764;2023-06-10T11:34:05;24.70;49.90
25953;DHT22;13750;50.804;8.764;2023-06-10T11:36:33;24.90;48.30
25953;DHT22;13750;50.804;8.764;2023-06-10T11:39:05;25.10;46.80
25953;DHT22;13750;50.804;8.764;2023-06-10T11:41:32;25.10;47.20
25953;DHT22;13750;50.804;8.764;2023-06-10T11:44:02;25.20;47.50
25953;DHT22;13750;50.804;8.764;2023-06-10T11:46:27;25.20;47.60
25953;DHT22;13750;50.804;8.764;2023-06-10T11:48:55;25.20;46.70
25953;DHT22;13750;50.804;8.764;2023-06-10T11:51:21;25.30;46.00
25953;DHT22;13750;50.804;8.764;2023-06-10T11:53:48;25.40;46.20
25953;DHT22;13750;50.804;8.764;2023-06-10T11:56:19;25.60;45.20
25953;DHT22;13750;50.804;8.764;2023-06-10T11:58:45;25.60;45.90
25953;DHT22;13750;50.804;8.764;2023-06-10T12:01:11;25.60;45.50
25953;DHT22;13750;50.804;8.764;2023-06-10T12:03:37;25.70;46.20
25953;DHT22;13750;50.804;8.764;2023-06-10T12:06:05;25.60;45.90
25953;DHT22;13750;50.804;8.764;2023-06-10T12:08:31;25.60;45.80
25953;DHT22;13750;50.804;8.764;2023-06-10T12:10:58;25.70;46.10
25953;DHT22;13750;50.804;8.764;2023-06-10T12:13:26;25.60;46.20
25953;DHT22;13750;50.804;8.764;2023-06-10T12:15:52;25.60;43.70
25953;DHT22;13750;50.804;8.764;2023-06-10T12:18:18;25.70;41.50
25953;DHT22;13750;50.804;8.764;2023-06-10T12:20:44;25.90;41.10
25953;DHT22;13750;50.804;8.764;2023-06-10T12:23:10;26.00;41.80
25953;DHT22;13750;50.804;8.764;2023-06-10T12:25:36;26.00;43.00
25953;DHT22;13750;50.804;8.764;2023-06-10T12:28:03;26.00;42.30
25953;DHT22;13750;50.804;8.764;2023-06-10T12:30:29;26.10;42.60
25953;DHT22;13750;50.804;8.764;2023-06-10T12:32:55;26.10;41.50
25953;DHT22;13750;50.804;8.764;2023-06-10T12:35:24;26.10;42.20
25953;DHT22;13750;50.804;8.764;2023-06-10T12:37:59;26.20;42.40
25953;DHT22;13750;50.804;8.764;2023-06-10T12:40:33;26.20;42.40
25953;DHT22;13750;50.804;8.764;2023-06-10T12:43:00;26.20;42.50
25953;DHT22;13750;50.804;8.764;2023-06-10T12:45:34;26.20;42.30
25953;DHT22;13750;50.804;8.764;2023-06-10T12:50:51;26.10;43.00
25953;DHT22;13750;50.804;8.764;2023-06-10T12:53:18;26.10;43.80
25953;DHT22;13750;50.804;8.764;2023-06-10T12:55:43;26.10;43.50
25953;DHT22;13750;50.804;8.764;2023-06-10T12:58:11;26.10;43.80
25953;DHT22;13750;50.804;8.764;2023-06-10T13:00:37;26.10;43.00
25953;DHT22;13750;50.804;8.764;2023-06-10T13:03:03;26.10;43.60
25953;DHT22;13750;50.804;8.764;2023-06-10T13:05:31;26.10;42.80
25953;DHT22;13750;50.804;8.764;2023-06-10T13:07:57;26.10;43.20
25953;DHT22;13750;50.804;8.764;2023-06-10T13:10:23;26.10;43.60
25953;DHT22;13750;50.804;8.764;2023-06-10T13:12:51;26.10;44.00
25953;DHT22;13750;50.804;8.764;2023-06-10T13:15:17;26.10;43.70
25953;DHT22;13750;50.804;8.764;2023-06-10T13:17:44;26.10;43.50
25953;DHT22;13750;50.804;8.764;2023-06-10T13:20:10;26.20;44.20
25953;DHT22;13750;50.804;8.764;2023-06-10T13:22:36;26.20;44.10
25953;DHT22;13750;50.804;8.764;2023-06-10T13:25:03;26.20;44.50
25953;DHT22;13750;50.804;8.764;2023-06-10T13:27:29;26.20;44.40
25953;DHT22;13750;50.804;8.764;2023-06-10T13:29:54;26.20;43.40
25953;DHT22;13750;50.804;8.764;2023-06-10T13:32:20;26.20;44.40
25953;DHT22;13750;50.804;8.764;2023-06-10T13:34:46;26.30;43.10
25953;DHT22;13750;50.804;8.764;2023-06-10T13:37:12;26.40;42.20
25953;DHT22;13750;50.804;8.764;2023-06-10T13:39:42;26.40;42.90
25953;DHT22;13750;50.804;8.764;2023-06-10T13:42:08;26.50;43.20
25953;DHT22;13750;50.804;8.764;2023-06-10T13:44:34;26.50;43.30
25953;DHT22;13750;50.804;8.764;2023-06-10T13:47:02;26.50;43.70
25953;DHT22;13750;50.804;8.764;2023-06-10T13:49:28;26.60;42.10
25953;DHT22;13750;50.804;8.764;2023-06-10T13:51:53;26.50;42.70
25953;DHT22;13750;50.804;8.764;2023-06-10T13:54:19;26.50;42.20
25953;DHT22;13750;50.804;8.764;2023-06-10T13:56:44;26.60;42.00
25953;DHT22;13750;50.804;8.764;2023-06-10T13:59:10;26.60;41.70
25953;DHT22;13750;50.804;8.764;2023-06-10T14:01:35;26.60;39.50
25953;DHT22;13750;50.804;8.764;2023-06-10T14:04:01;26.70;40.10
25953;DHT22;13750;50.804;8.764;2023-06-10T14:06:27;26.70;40.70
25953;DHT22;13750;50.804;8.764;2023-06-10T14:08:53;26.80;41.30
25953;DHT22;13750;50.804;8.764;2023-06-10T14:11:20;26.90;41.00
25953;DHT22;13750;50.804;8.764;2023-06-10T14:13:46;26.90;41.70
25953;DHT22;13750;50.804;8.764;2023-06-10T14:16:12;27.00;40.80
25953;DHT22;13750;50.804;8.764;2023-06-10T14:18:37;27.10;41.60
25953;DHT22;13750;50.804;8.764;2023-06-10T14:21:03;27.10;40.60
25953;DHT22;13750;50.804;8.764;2023-06-10T14:23:28;27.10;39.60
25953;DHT22;13750;50.804;8.764;2023-06-10T14:25:54;27.20;40.30
25953;DHT22;13750;50.804;8.764;2023-06-10T14:28:20;27.20;39.50
25953;DHT22;13750;50.804;8.764;2023-06-10T14:30:45;27.30;39.50
25953;DHT22;13750;50.804;8.764;2023-06-10T14:33:11;27.30;39.80
25953;DHT22;13750;50.804;8.764;2023-06-10T14:35:36;27.30;40.00
25953;DHT22;13750;50.804;8.764;2023-06-10T14:38:02;27.40;41.10
25953;DHT22;13750;50.804;8.764;2023-06-10T14:40:29;27.40;41.00
25953;DHT22;13750;50.804;8.764;2023-06-10T14:42:57;27.40;41.10
25953;DHT22;13750;50.804;8.764;2023-06-10T14:45:22;27.50;41.20
25953;DHT22;13750;50.804;8.764;2023-06-10T14:47:48;27.60;40.90
25953;DHT22;13750;50.804;8.764;2023-06-10T14:50:14;27.60;41.20
25953;DHT22;13750;50.804;8.764;2023-06-10T14:52:40;27.60;40.40
25953;DHT22;13750;50.804;8.764;2023-06-10T14:55:06;27.60;40.30
25953;DHT22;13750;50.804;8.764;2023-06-10T14:57:31;27.60;40.50
25953;DHT22;13750;50.804;8.764;2023-06-10T14:59:57;27.70;40.90
25953;DHT22;13750;50.804;8.764;2023-06-10T15:02:23;27.80;40.20
25953;DHT22;13750;50.804;8.764;2023-06-10T15:04:48;27.80;40.50
25953;DHT22;13750;50.804;8.764;2023-06-10T15:07:14;27.80;41.00
25953;DHT22;13750;50.804;8.764;2023-06-10T15:09:43;27.90;41.60
25953;DHT22;13750;50.804;8.764;2023-06-10T15:12:09;27.90;41.00
25953;DHT22;13750;50.804;8.764;2023-06-10T15:14:34;28.00;39.30
25953;DHT22;13750;50.804;8.764;2023-06-10T15:17:00;28.00;39.80
25953;DHT22;13750;50.804;8.764;2023-06-10T15:19:26;28.00;40.60
25953;DHT22;13750;50.804;8.764;2023-06-10T15:21:52;28.00;41.10
25953;DHT22;13750;50.804;8.764;2023-06-10T15:24:18;28.10;41.00
25953;DHT22;13750;50.804;8.764;2023-06-10T15:26:43;28.10;40.30
25953;DHT22;13750;50.804;8.764;2023-06-10T15:29:09;28.10;40.40
25953;DHT22;13750;50.804;8.764;2023-06-10T15:31:35;28.10;40.70
25953;DHT22;13750;50.804;8.764;2023-06-10T15:34:03;28.10;40.30
25953;DHT22;13750;50.804;8.764;2023-06-10T15:36:40;28.20;40.50
25953;DHT22;13750;50.804;8.764;2023-06-10T15:39:37;28.20;40.60
25953;DHT22;13750;50.804;8.764;2023-06-10T15:45:48;28.20;41.00